Time;durP1;ratioP1;P1;durP2;ratioP2;P2;SDS_P1;SDS_P2;PMS_P1;PMS_P2;Temp;Humidity;BMP_temperature;BMP_pressure;BME280_temperature;BME280_humidity;BME280_pressure;Samples;Min_cycle;Max_cycle;Signal;HPM_P1;HPM_P2
2021/06/19 00:01:28;;;;;;;5.00;3.30;;;20.30;62.30;;;;;;5057368;28;20063;-78
2021/06/19 00:03:54;;;;;;;5.03;3.72;;;20.40;62.40;;;;;;5055949;28;20417;-78
2021/06/19 00:06:20;;;;;;;7.22;3.83;;;20.40;62.40;;;;;;5055288;28;20071;-80
2021/06/19 00:08:46;;;;;;;6.28;3.60;;;20.30;62.50;;;;;;5055412;28;20021;-78
2021/06/19 00:11:13;;;;;;;7.63;3.40;;;20.30;62.50;;;;;;5055361;28;20430;-79
2021/06/19 00:13:39;;;;;;;11.48;4.50;;;20.30;62.50;;;;;;5055584;28;20013;-79
2021/06/19 00:16:05;;;;;;;9.45;3.50;;;20.30;62.80;;;;;;5059880;28;20035;-79
2021/06/19 00:18:33;;;;;;;8.55;4.05;;;20.20;62.80;;;;;;5055283;28;20009;-80
2021/06/19 00:20:59;;;;;;;8.35;3.70;;;20.20;62.80;;;;;;5036677;28;20489;-78
2021/06/19 00:23:25;;;;;;;5.07;3.70;;;20.20;62.90;;;;;;5054539;28;20013;-78
2021/06/19 00:25:51;;;;;;;6.40;3.85;;;20.10;63.50;;;;;;5054685;28;20043;-77
2021/06/19 00:28:17;;;;;;;7.05;3.50;;;20.10;63.00;;;;;;5054543;28;20021;-79
2021/06/19 00:30:46;;;;;;;6.07;3.70;;;20.10;63.10;;;;;;5054283;28;20025;-80
2021/06/19 00:33:15;;;;;;;7.05;3.85;;;20.10;63.60;;;;;;5054203;28;20021;-78
2021/06/19 00:35:41;;;;;;;6.10;3.53;;;20.10;63.50;;;;;;5056010;28;20032;-78
2021/06/19 00:38:06;;;;;;;6.68;3.33;;;20.10;63.70;;;;;;5060464;28;20036;-79
2021/06/19 00:40:38;;;;;;;9.15;3.78;;;20.10;63.80;;;;;;5054302;28;20413;-80
2021/06/19 00:43:07;;;;;;;6.55;3.22;;;20.10;63.90;;;;;;5054380;28;20027;-76
2021/06/19 00:45:37;;;;;;;5.82;3.72;;;20.00;64.00;;;;;;5055036;28;20033;-79
2021/06/19 00:48:13;;;;;;;7.40;4.30;;;20.00;64.00;;;;;;5054172;28;20469;-79
2021/06/19 00:50:41;;;;;;;9.73;3.58;;;20.00;64.20;;;;;;5054093;28;20092;-78
2021/06/19 00:53:07;;;;;;;3.92;3.40;;;20.00;63.90;;;;;;5054326;28;20402;-78
2021/06/19 00:55:33;;;;;;;8.68;3.92;;;20.00;64.00;;;;;;5054130;28;20033;-77
2021/06/19 00:58:01;;;;;;;7.72;4.30;;;20.00;64.10;;;;;;5036211;28;20375;-79
2021/06/19 01:00:27;;;;;;;7.72;4.10;;;20.00;64.30;;;;;;5054092;28;20037;-79
2021/06/19 01:02:55;;;;;;;5.78;3.60;;;20.00;64.30;;;;;;5035890;28;20023;-79
2021/06/19 01:05:21;;;;;;;8.52;3.70;;;20.00;64.40;;;;;;5053957;28;20021;-78
2021/06/19 01:07:47;;;;;;;5.65;3.85;;;20.00;64.30;;;;;;5053807;28;20108;-78
2021/06/19 01:10:13;;;;;;;9.35;4.15;;;20.00;64.30;;;;;;5053976;28;20542;-76
2021/06/19 01:12:44;;;;;;;7.60;3.60;;;20.00;64.20;;;;;;5053637;28;20023;-78
2021/06/19 01:15:11;;;;;;;6.50;3.80;;;20.00;64.30;;;;;;5053815;28;20028;-79
2021/06/19 01:17:37;;;;;;;6.20;4.32;;;20.00;64.30;;;;;;5053937;28;20382;-77
2021/06/19 01:20:07;;;;;;;7.63;4.03;;;20.00;64.50;;;;;;5053718;28;20029;-78
2021/06/19 01:22:34;;;;;;;9.57;4.30;;;20.00;64.50;;;;;;5054688;28;20016;-78
2021/06/19 01:25:05;;;;;;;;;;;20.10;64.40;;;;;;5053989;28;20017;-78
2021/06/19 01:27:32;;;;;;;5.68;3.55;;;20.10;63.60;;;;;;5053573;28;19904;-79
2021/06/19 01:29:59;;;;;;;11.10;3.80;;;20.10;64.10;;;;;;5053570;28;20021;-80
2021/06/19 01:32:29;;;;;;;;;;;20.10;63.60;;;;;;5036083;28;20029;-79
2021/06/19 01:34:55;;;;;;;8.05;3.65;;;20.20;63.10;;;;;;5053359;28;19916;-79
2021/06/19 01:37:21;;;;;;;9.63;4.00;;;20.20;63.80;;;;;;5053792;28;20017;-80
2021/06/19 01:39:47;;;;;;;10.73;3.97;;;20.20;63.70;;;;;;5053560;28;20037;-78
2021/06/19 01:42:13;;;;;;;6.57;3.80;;;20.20;63.80;;;;;;5074135;28;20478;-79
2021/06/19 01:44:39;;;;;;;6.65;3.80;;;20.30;63.40;;;;;;5073728;28;20039;-78
2021/06/19 01:47:06;;;;;;;8.30;3.60;;;20.40;63.20;;;;;;5073160;28;20020;-78
2021/06/19 01:49:33;;;;;;;10.82;3.95;;;20.40;63.60;;;;;;5066744;28;20025;-78
2021/06/19 01:51:59;;;;;;;8.00;4.07;;;20.50;63.20;;;;;;5073372;28;20028;-79
2021/06/19 01:54:25;;;;;;;7.18;4.20;;;20.50;63.10;;;;;;5073259;28;20507;-78
2021/06/19 01:56:51;;;;;;;8.38;3.85;;;20.60;62.90;;;;;;5071548;28;20013;-80
2021/06/19 01:59:16;;;;;;;10.65;4.35;;;20.70;62.90;;;;;;5073187;28;20036;-80
2021/06/19 02:01:45;;;;;;;8.63;4.03;;;20.70;62.60;;;;;;5087977;28;20024;-80
2021/06/19 02:04:11;;;;;;;9.50;4.85;;;20.70;63.10;;;;;;5074094;28;20481;-79
2021/06/19 02:06:37;;;;;;;7.82;4.05;;;20.80;62.90;;;;;;5073084;28;20028;-78
2021/06/19 02:09:09;;;;;;;7.20;4.10;;;20.80;62.90;;;;;;5073192;28;20028;-80
2021/06/19 02:11:36;;;;;;;6.82;3.80;;;20.80;62.40;;;;;;5072684;28;20052;-79
2021/06/19 02:14:04;;;;;;;6.38;3.95;;;20.80;62.20;;;;;;5072646;28;20516;-80
2021/06/19 02:16:30;;;;;;;11.07;4.50;;;20.90;62.50;;;;;;5072833;28;20075;-81
2021/06/19 02:18:56;;;;;;;9.00;3.92;;;21.00;62.50;;;;;;5072906;28;20024;-81
2021/06/19 02:21:22;;;;;;;11.55;4.32;;;21.00;62.40;;;;;;5072796;28;20064;-79
2021/06/19 02:23:48;;;;;;;12.52;4.32;;;21.10;62.20;;;;;;5072581;28;20482;-80
2021/06/19 02:26:14;;;;;;;11.75;3.85;;;21.10;61.70;;;;;;5072872;28;20074;-80
2021/06/19 02:28:40;;;;;;;6.63;3.53;;;21.20;61.80;;;;;;5073200;28;20028;-80
2021/06/19 02:31:06;;;;;;;8.45;3.70;;;21.20;61.50;;;;;;5072781;28;20047;-80
2021/06/19 02:33:33;;;;;;;13.38;4.47;;;21.30;61.80;;;;;;5072691;28;20036;-80
2021/06/19 02:35:59;;;;;;;9.07;3.67;;;21.30;61.50;;;;;;5072622;28;20028;-80
2021/06/19 02:38:25;;;;;;;6.38;3.47;;;21.30;61.50;;;;;;5085436;28;20021;-79
2021/06/19 02:40:51;;;;;;;8.55;3.92;;;21.40;60.40;;;;;;5073651;28;20048;-79
2021/06/19 02:43:19;;;;;;;9.67;4.23;;;21.50;60.90;;;;;;5072433;28;20474;-79
2021/06/19 02:45:45;;;;;;;7.10;4.10;;;21.50;60.00;;;;;;5072375;28;20265;-80
2021/06/19 02:48:11;;;;;;;4.40;3.30;;;21.60;60.20;;;;;;5072472;28;20035;-79
2021/06/19 02:50:40;;;;;;;9.80;4.20;;;21.60;59.70;;;;;;5072243;28;20032;-79
2021/06/19 02:53:06;;;;;;;9.73;4.22;;;21.70;59.90;;;;;;5054481;28;20025;-79
2021/06/19 02:55:35;;;;;;;6.53;3.90;;;21.70;60.00;;;;;;5072464;28;20025;-78
2021/06/19 02:58:03;;;;;;;8.50;3.75;;;21.80;59.80;;;;;;5072758;28;20104;-79
2021/06/19 03:00:29;;;;;;;8.73;4.00;;;22.00;60.00;;;;;;5078664;28;20061;-78
2021/06/19 03:02:55;;;;;;;7.97;3.75;;;22.10;59.50;;;;;;5078804;28;20048;-79
2021/06/19 03:05:27;;;;;;;5.13;3.53;;;22.30;58.90;;;;;;5079208;28;20027;-79
2021/06/19 03:07:54;;;;;;;8.35;3.85;;;22.30;59.20;;;;;;5079703;28;20013;-79
2021/06/19 03:10:26;;;;;;;6.50;3.97;;;22.50;58.40;;;;;;5079669;28;20021;-78
2021/06/19 03:12:52;;;;;;;7.25;3.80;;;22.60;58.10;;;;;;5081339;28;20021;-80
2021/06/19 03:15:21;;;;;;;9.65;3.65;;;22.70;57.90;;;;;;5079418;28;20031;-80
2021/06/19 03:17:48;;;;;;;10.50;4.07;;;22.70;58.10;;;;;;5078928;28;20024;-79
2021/06/19 03:20:15;;;;;;;8.43;3.80;;;22.70;57.80;;;;;;5078668;28;20020;-79
2021/06/19 03:23:07;;;;;;;8.32;6.53;;;22.70;57.60;;;;;;5078814;28;20016;-79
2021/06/19 03:25:40;;;;;;;7.32;3.10;;;22.80;57.50;;;;;;5079923;28;20027;-78
2021/06/19 03:28:06;;;;;;;7.07;3.45;;;22.80;57.20;;;;;;5079165;28;20557;-80
2021/06/19 03:30:34;;;;;;;8.67;3.20;;;22.80;57.50;;;;;;5079412;28;20381;-81
2021/06/19 03:33:01;;;;;;;5.28;3.72;;;22.80;57.40;;;;;;5079844;28;20257;-80
2021/06/19 03:35:27;;;;;;;8.47;3.60;;;22.80;57.60;;;;;;5079988;28;20028;-80
2021/06/19 03:37:54;;;;;;;6.65;4.00;;;22.90;58.00;;;;;;5061234;28;20025;-80
2021/06/19 03:40:21;;;;;;;8.70;3.47;;;23.00;57.20;;;;;;5078862;28;20047;-80
2021/06/19 03:42:49;;;;;;;8.18;3.97;;;23.10;57.80;;;;;;5078794;28;20103;-79
2021/06/19 03:45:17;;;;;;;9.93;3.53;;;23.20;56.80;;;;;;5080375;28;20487;-79
2021/06/19 03:47:45;;;;;;;6.30;3.83;;;23.20;57.20;;;;;;5079093;28;20040;-80
2021/06/19 03:50:12;;;;;;;;;;;23.30;56.80;;;;;;5079249;28;20044;-79
2021/06/19 03:52:38;;;;;;;;;;;23.30;56.70;;;;;;5079239;28;19904;-79
2021/06/19 03:55:08;;;;;;;6.57;3.30;;;23.30;56.70;;;;;;5061580;28;19911;-79
2021/06/19 03:57:36;;;;;;;10.20;3.60;;;23.30;57.40;;;;;;5078829;28;20016;-80
2021/06/19 04:00:07;;;;;;;7.63;3.65;;;23.50;56.50;;;;;;5078543;28;20531;-81
2021/06/19 04:02:32;;;;;;;9.75;3.78;;;23.60;56.40;;;;;;5078272;28;20024;-81
2021/06/19 04:04:58;;;;;;;7.70;3.90;;;23.70;55.80;;;;;;5087550;28;20481;-80
2021/06/19 04:07:24;;;;;;;10.50;3.80;;;23.80;55.50;;;;;;5086238;28;20092;-79
2021/06/19 04:09:52;;;;;;;7.13;3.60;;;23.80;54.90;;;;;;5077460;28;20035;-80
2021/06/19 04:12:21;;;;;;;5.15;3.17;;;23.80;54.90;;;;;;5075218;28;20032;-78
2021/06/19 04:14:48;;;;;;;8.15;3.65;;;23.80;54.80;;;;;;5074935;28;20035;-78
2021/06/19 04:17:14;;;;;;;9.35;3.35;;;23.90;54.30;;;;;;5075023;28;20023;-79
2021/06/19 04:19:41;;;;;;;14.05;3.42;;;23.90;54.10;;;;;;5075025;28;20032;-80
2021/06/19 04:22:08;;;;;;;4.80;2.90;;;23.90;54.30;;;;;;5079308;28;20029;-79
2021/06/19 04:24:35;;;;;;;6.82;3.33;;;24.00;53.60;;;;;;5070257;28;20293;-79
2021/06/19 04:27:01;;;;;;;5.88;2.67;;;24.00;53.40;;;;;;5064906;28;20147;-79
2021/06/19 04:29:30;;;;;;;5.32;3.58;;;24.20;53.30;;;;;;5070333;28;20017;-79
2021/06/19 04:31:57;;;;;;;5.25;2.80;;;24.20;53.00;;;;;;5052934;28;20021;-79
2021/06/19 04:34:23;;;;;;;6.43;3.00;;;24.20;51.80;;;;;;5069398;28;20040;-80
2021/06/19 04:36:50;;;;;;;5.40;4.03;;;24.20;52.00;;;;;;5067319;28;20047;-80
2021/06/19 04:39:17;;;;;;;4.60;3.25;;;24.20;52.10;;;;;;5067440;28;20495;-80
2021/06/19 04:44:28;;;;;;;7.40;2.47;;;24.40;52.60;;;;;;5065875;28;20021;-82
2021/06/19 04:46:54;;;;;;;5.20;2.97;;;24.50;51.30;;;;;;5050524;28;20078;-80
2021/06/19 04:49:20;;;;;;;13.43;3.10;;;24.50;51.20;;;;;;5066401;28;20496;-80
2021/06/19 04:51:47;;;;;;;8.60;2.80;;;24.50;50.40;;;;;;5069836;28;20047;-78
2021/06/19 04:54:13;;;;;;;6.15;2.47;;;24.50;50.10;;;;;;5064829;28;20017;-79
2021/06/19 04:56:43;;;;;;;9.45;2.80;;;24.50;50.50;;;;;;5069533;28;20383;-79
2021/06/19 04:59:08;;;;;;;10.52;3.10;;;24.60;50.40;;;;;;5064799;28;20029;-79
2021/06/19 05:01:34;;;;;;;8.48;2.75;;;24.60;50.10;;;;;;5068767;28;20028;-80
2021/06/19 05:04:03;;;;;;;4.75;2.95;;;24.80;49.80;;;;;;5048639;28;20059;-79
2021/06/19 05:06:29;;;;;;;7.55;2.92;;;24.80;49.20;;;;;;5072827;28;20359;-80
2021/06/19 05:08:56;;;;;;;3.63;2.28;;;24.80;49.90;;;;;;5083814;28;20497;-79
2021/06/19 05:11:21;;;;;;;7.70;3.33;;;24.80;49.90;;;;;;5077071;28;20152;-79
2021/06/19 05:13:47;;;;;;;7.75;2.85;;;25.10;49.90;;;;;;5074114;28;20055;-82
2021/06/19 05:16:14;;;;;;;5.60;2.97;;;25.70;48.90;;;;;;5081375;28;20032;-79
2021/06/19 05:18:41;;;;;;;7.75;3.50;;;26.40;47.30;;;;;;5063662;28;20501;-79
2021/06/19 05:21:07;;;;;;;7.97;2.95;;;27.50;46.30;;;;;;5078149;28;20130;-78
2021/06/19 05:23:32;;;;;;;8.18;2.88;;;28.80;43.80;;;;;;5065620;28;20488;-79
2021/06/19 05:25:58;;;;;;;8.10;2.95;;;30.00;42.10;;;;;;5069130;28;20405;-79
2021/06/19 05:28:26;;;;;;;6.28;2.72;;;31.00;40.50;;;;;;5066025;28;20104;-82
2021/06/19 05:30:52;;;;;;;3.78;2.35;;;31.90;38.40;;;;;;5068402;28;20016;-80
2021/06/19 05:33:18;;;;;;;10.00;2.50;;;32.60;37.80;;;;;;5076160;28;20028;-80
2021/06/19 05:35:44;;;;;;;5.60;2.72;;;32.80;36.90;;;;;;5064297;28;20406;-80
2021/06/19 05:38:10;;;;;;;7.43;2.20;;;33.10;36.60;;;;;;5061454;28;20031;-81
2021/06/19 05:40:36;;;;;;;5.67;2.90;;;33.30;36.20;;;;;;5085600;28;20040;-80
2021/06/19 05:43:02;;;;;;;4.50;2.67;;;33.60;35.10;;;;;;5090661;28;20019;-80
2021/06/19 05:45:27;;;;;;;5.70;2.70;;;34.10;35.50;;;;;;5088893;28;20144;-81
2021/06/19 05:47:53;;;;;;;6.47;2.43;;;34.70;34.00;;;;;;5083097;28;20421;-80
2021/06/19 05:50:19;;;;;;;7.60;2.20;;;35.20;32.90;;;;;;5077220;28;20491;-78
2021/06/19 05:52:45;;;;;;;6.10;2.43;;;35.40;33.20;;;;;;5064823;28;20021;-79
2021/06/19 05:55:11;;;;;;;5.40;3.07;;;35.80;32.70;;;;;;5069168;28;20032;-79
2021/06/19 05:57:37;;;;;;;5.57;2.25;;;36.20;32.20;;;;;;5056413;28;20420;-78
2021/06/19 06:00:07;;;;;;;4.82;1.85;;;36.50;31.90;;;;;;5036692;28;20406;-78
2021/06/19 06:02:34;;;;;;;5.03;2.35;;;36.90;31.40;;;;;;5052647;28;20470;-79
2021/06/19 06:05:00;;;;;;;3.63;2.20;;;;;;;;;;5061957;28;20024;-79
2021/06/19 06:07:26;;;;;;;4.88;2.15;;;;;;;;;;5060437;28;20017;-80
2021/06/19 06:09:52;;;;;;;3.78;2.15;;;;;;;;;;5064609;28;20025;-79
2021/06/19 06:12:18;;;;;;;5.22;2.40;;;37.50;31.00;;;;;;5053473;28;20023;-79
2021/06/19 06:14:44;;;;;;;5.20;2.10;;;39.00;29.40;;;;;;5082870;28;20040;-79
2021/06/19 06:17:10;;;;;;;4.43;1.67;;;39.70;29.80;;;;;;5072227;28;20012;-79
2021/06/19 06:19:36;;;;;;;;;;;40.10;28.30;;;;;;5068897;28;20097;-79
2021/06/19 06:22:05;;;;;;;3.78;1.90;;;39.70;29.40;;;;;;5068482;28;20315;-78
2021/06/19 06:24:32;;;;;;;5.72;2.10;;;39.10;28.50;;;;;;5070285;28;20094;-80
2021/06/19 06:26:58;;;;;;;7.10;2.20;;;39.50;28.60;;;;;;5068187;28;20013;-80
2021/06/19 06:29:24;;;;;;;;;;;40.30;28.20;;;;;;5071450;28;20032;-81
2021/06/19 06:31:51;;;;;;;4.63;2.08;;;41.90;28.50;;;;;;5070873;28;20369;-79
2021/06/19 06:34:17;;;;;;;5.65;2.70;;;42.00;27.20;;;;;;5068233;28;20086;-79
2021/06/19 06:36:43;;;;;;;8.52;2.55;;;41.40;27.30;;;;;;5066353;28;20535;-78
2021/06/19 06:39:09;;;;;;;5.22;1.90;;;42.10;27.30;;;;;;5071336;28;20024;-82
2021/06/19 06:41:35;;;;;;;6.13;1.98;;;42.30;26.80;;;;;;5072021;28;20053;-80
2021/06/19 06:44:01;;;;;;;;;;;42.90;27.00;;;;;;5066530;28;20045;-79
2021/06/19 06:46:27;;;;;;;4.20;1.63;;;43.40;27.50;;;;;;5052612;28;19908;-82
2021/06/19 06:48:53;;;;;;;;;;;44.00;26.40;;;;;;5057340;28;20052;-81
2021/06/19 06:51:22;;;;;;;3.30;1.83;;;44.40;27.00;;;;;;5062361;28;20014;-83
2021/06/19 06:53:47;;;;;;;5.43;2.13;;;45.10;25.90;;;;;;5068367;28;20033;-79
2021/06/19 06:56:13;;;;;;;7.03;2.10;;;44.20;25.60;;;;;;5064209;28;20104;-80
2021/06/19 06:58:39;;;;;;;4.85;1.67;;;43.10;25.70;;;;;;5034747;28;20144;-79
2021/06/19 07:01:07;;;;;;;;;;;43.30;25.70;;;;;;5059539;28;20047;-80
2021/06/19 07:03:33;;;;;;;5.50;1.70;;;44.10;26.60;;;;;;5059640;28;19912;-82
2021/06/19 07:05:59;;;;;;;8.43;2.22;;;44.10;25.30;;;;;;5071733;28;20412;-82
2021/06/19 07:08:25;;;;;;;5.72;1.92;;;44.70;25.20;;;;;;5052753;28;20025;-81
2021/06/19 07:10:51;;;;;;;3.55;1.60;;;45.50;25.60;;;;;;5054202;28;20127;-83
2021/06/19 07:13:17;;;;;;;4.30;1.92;;;45.10;24.70;;;;;;5055213;28;20090;-83
2021/06/19 07:15:44;;;;;;;;;;;42.80;25.40;;;;;;5055424;28;20114;-84
2021/06/19 07:18:11;;;;;;;6.65;2.17;;;43.20;26.30;;;;;;5058093;28;19943;-84
2021/06/19 07:20:37;;;;;;;5.20;1.65;;;44.20;26.00;;;;;;5075717;28;20086;-82
2021/06/19 07:23:02;;;;;;;4.72;1.95;;;44.40;25.60;;;;;;5058118;28;20021;-83
2021/06/19 07:25:28;;;;;;;6.60;1.70;;;44.60;25.30;;;;;;5053003;28;20025;-82
2021/06/19 07:27:54;;;;;;;7.72;1.98;;;45.70;25.30;;;;;;5053268;28;20112;-82
2021/06/19 07:30:22;;;;;;;4.75;1.83;;;46.70;24.50;;;;;;5067459;28;20032;-85
2021/06/19 07:32:48;;;;;;;3.80;1.90;;;46.40;24.20;;;;;;5053896;28;20063;-84
2021/06/19 07:35:14;;;;;;;5.10;2.17;;;45.00;24.50;;;;;;5056294;28;20087;-82
2021/06/19 07:37:40;;;;;;;6.43;2.20;;;44.30;24.80;;;;;;5053482;28;20049;-83
2021/06/19 07:40:07;;;;;;;4.72;1.83;;;43.60;25.10;;;;;;5052473;28;20089;-84
2021/06/19 07:42:35;;;;;;;8.35;3.35;;;43.10;25.50;;;;;;5052021;28;20351;-81
2021/06/19 07:45:05;;;;;;;4.72;2.28;;;43.90;25.80;;;;;;5052515;28;20028;-82
2021/06/19 07:47:31;;;;;;;5.28;2.55;;;43.70;25.70;;;;;;5055669;28;20543;-82
2021/06/19 07:49:57;;;;;;;4.03;1.90;;;44.90;25.30;;;;;;5056269;28;20029;-85
2021/06/19 07:52:22;;;;;;;5.20;2.05;;;46.10;25.00;;;;;;5055710;28;20025;-83
2021/06/19 07:54:48;;;;;;;4.97;1.77;;;46.50;24.40;;;;;;5056476;28;20078;-82
2021/06/19 07:57:15;;;;;;;4.90;1.77;;;;;;;;;;5042458;28;20117;-83
2021/06/19 07:59:41;;;;;;;2.22;1.52;;;46.50;24.00;;;;;;5055667;28;20095;-84
2021/06/19 08:02:07;;;;;;;4.90;2.20;;;45.00;24.30;;;;;;5055408;28;20021;-83
2021/06/19 08:04:36;;;;;;;10.50;2.10;;;43.90;25.00;;;;;;5055444;28;20101;-83
2021/06/19 08:07:03;;;;;;;5.55;1.90;;;44.50;25.30;;;;;;5055549;28;20386;-83
2021/06/19 08:09:29;;;;;;;4.95;1.75;;;45.50;25.00;;;;;;5055316;28;20105;-84
2021/06/19 08:11:55;;;;;;;5.80;1.60;;;46.10;24.30;;;;;;5055520;28;20103;-83
2021/06/19 08:14:21;;;;;;;2.22;1.77;;;45.40;24.30;;;;;;5055173;28;20035;-83
2021/06/19 08:16:51;;;;;;;5.97;2.28;;;44.50;24.50;;;;;;5055413;28;20025;-83
2021/06/19 08:19:17;;;;;;;6.47;2.08;;;43.70;25.30;;;;;;5055198;28;20492;-83
2021/06/19 08:21:43;;;;;;;6.18;2.10;;;44.40;25.00;;;;;;5054834;28;20496;-83
2021/06/19 08:24:09;;;;;;;7.90;1.92;;;44.90;24.60;;;;;;5037852;28;20035;-84
2021/06/19 08:26:39;;;;;;;5.93;1.90;;;45.10;24.50;;;;;;5055582;28;20021;-83
2021/06/19 08:29:06;;;;;;;10.00;5.82;;;45.50;24.60;;;;;;5054813;28;20131;-83
2021/06/19 08:31:37;;;;;;;6.07;2.50;;;46.70;24.40;;;;;;5054841;28;20023;-83
2021/06/19 08:34:08;;;;;;;6.28;3.67;;;46.70;24.00;;;;;;5055129;28;20028;-84
2021/06/19 08:36:34;;;;;;;6.25;2.40;;;46.70;24.20;;;;;;5054771;28;20017;-82
2021/06/19 08:39:01;;;;;;;6.55;2.05;;;47.20;24.10;;;;;;5054509;28;20025;-83
2021/06/19 08:41:27;;;;;;;3.17;2.15;;;46.50;23.90;;;;;;5068709;28;20048;-81
2021/06/19 08:43:53;;;;;;;5.53;2.08;;;46.50;24.00;;;;;;5075010;28;20056;-82
2021/06/19 08:46:23;;;;;;;6.88;2.15;;;46.80;24.00;;;;;;5075023;28;20547;-84
2021/06/19 08:48:54;;;;;;;3.47;2.10;;;47.80;23.90;;;;;;5060863;28;20032;-82
2021/06/19 08:51:21;;;;;;;8.88;2.35;;;49.10;23.10;;;;;;5075293;28;20028;-85
2021/06/19 08:53:50;;;;;;;4.43;2.00;;;49.10;23.50;;;;;;5057391;28;20497;-83
2021/06/19 08:56:18;;;;;;;4.15;1.83;;;49.90;23.20;;;;;;5074594;28;20071;-82
2021/06/19 08:58:45;;;;;;;6.45;2.25;;;49.90;22.90;;;;;;5056721;28;20031;-83
2021/06/19 09:01:12;;;;;;;59.97;7.13;;;49.90;23.40;;;;;;5059021;28;20028;-84
2021/06/19 09:03:38;;;;;;;11.57;2.90;;;49.90;22.80;;;;;;5057607;28;20474;-82
2021/06/19 09:06:26;;;;;;;3.25;1.42;;;50.10;23.10;;;;;;5065781;28;20039;-83
2021/06/19 09:09:05;;;;;;;6.68;2.13;;;50.30;23.00;;;;;;5075444;28;20025;-83
2021/06/19 09:11:34;;;;;;;5.78;1.98;;;50.00;23.10;;;;;;5076069;28;20024;-82
2021/06/19 09:14:05;;;;;;;4.53;1.98;;;49.80;22.90;;;;;;5084113;28;20033;-87
2021/06/19 09:16:31;;;;;;;4.57;1.60;;;49.90;22.80;;;;;;5072924;28;20070;-81
2021/06/19 09:18:57;;;;;;;5.20;1.75;;;49.90;22.70;;;;;;5075555;28;20432;-84
2021/06/19 09:21:28;;;;;;;3.50;1.45;;;49.00;22.50;;;;;;5087333;28;20036;-82
2021/06/19 09:23:54;;;;;;;6.22;1.52;;;48.30;22.60;;;;;;5074051;28;20032;-83
2021/06/19 09:26:26;;;;;;;7.53;1.85;;;47.70;22.90;;;;;;5074132;28;20029;-81
2021/06/19 09:29:17;;;;;;;5.10;1.98;;;47.60;23.30;;;;;;5074481;28;20031;-83
2021/06/19 09:31:49;;;;;;;6.30;1.85;;;47.80;23.50;;;;;;5074328;28;20130;-84
2021/06/19 09:34:25;;;;;;;4.88;1.55;;;47.50;23.60;;;;;;5056259;28;20028;-82
2021/06/19 09:37:03;;;;;;;3.83;2.28;;;47.40;23.50;;;;;;5073708;28;20078;-82
2021/06/19 09:39:34;;;;;;;4.20;1.95;;;47.20;23.30;;;;;;5075141;28;20115;-82
2021/06/19 09:42:02;;;;;;;8.27;2.20;;;46.30;23.70;;;;;;5056609;28;20473;-81
2021/06/19 09:44:38;;;;;;;5.30;2.22;;;46.00;24.00;;;;;;5065145;28;20021;-83
2021/06/19 09:47:05;;;;;;;9.77;2.10;;;46.30;24.00;;;;;;5071379;28;20508;-83
2021/06/19 09:49:36;;;;;;;4.47;2.40;;;46.60;24.00;;;;;;5074189;28;20062;-83
2021/06/19 09:52:03;;;;;;;6.22;1.88;;;46.90;24.10;;;;;;5074224;28;20447;-84
2021/06/19 09:54:29;;;;;;;7.03;1.75;;;46.10;23.80;;;;;;5073590;28;20066;-82
2021/06/19 09:56:59;;;;;;;9.05;2.28;;;46.00;24.20;;;;;;5073250;28;20104;-83
2021/06/19 09:59:35;;;;;;;2.85;1.50;;;46.40;24.10;;;;;;5073894;28;20098;-82
2021/06/19 10:02:30;;;;;;;11.30;2.15;;;46.40;24.10;;;;;;5073445;28;20021;-82
2021/06/19 10:04:57;;;;;;;5.50;1.92;;;45.50;24.00;;;;;;5063226;28;20049;-83
2021/06/19 10:07:28;;;;;;;3.22;1.70;;;45.30;24.10;;;;;;5073243;28;20079;-84
2021/06/19 10:09:56;;;;;;;5.72;1.60;;;46.00;24.10;;;;;;5073030;28;20107;-83
2021/06/19 10:12:29;;;;;;;7.15;2.05;;;46.50;23.70;;;;;;5073720;28;20504;-82
2021/06/19 10:15:07;;;;;;;4.22;1.80;;;46.80;23.70;;;;;;5073101;28;20009;-83
2021/06/19 10:17:36;;;;;;;4.45;2.03;;;46.50;23.50;;;;;;5073833;28;20073;-83
2021/06/19 10:20:04;;;;;;;4.40;1.67;;;46.10;23.60;;;;;;5073283;28;20035;-85
2021/06/19 10:22:32;;;;;;;5.88;1.90;;;46.10;23.80;;;;;;5073680;28;20448;-84
2021/06/19 10:25:05;;;;;;;4.82;2.03;;;45.80;24.00;;;;;;5073289;28;20024;-82
2021/06/19 10:27:32;;;;;;;3.55;1.63;;;45.80;24.30;;;;;;5073728;28;20056;-83
2021/06/19 10:30:02;;;;;;;4.55;2.17;;;45.20;24.30;;;;;;5073906;28;20021;-84
2021/06/19 10:32:47;;;;;;;6.95;2.30;;;43.40;24.60;;;;;;5074017;28;20027;-84
2021/06/19 10:35:18;;;;;;;5.75;2.47;;;41.60;26.10;;;;;;5073238;28;20021;-85
2021/06/19 10:37:45;;;;;;;3.58;1.80;;;39.60;26.60;;;;;;5073853;28;20028;-83
2021/06/19 10:40:29;;;;;;;6.60;2.78;;;37.30;28.20;;;;;;5072982;28;20075;-83
2021/06/19 10:43:18;;;;;;;4.22;2.15;;;35.50;29.50;;;;;;5082566;28;20035;-84
2021/06/19 10:45:46;;;;;;;4.90;2.47;;;34.30;30.80;;;;;;5041746;28;20020;-83
2021/06/19 10:48:18;;;;;;;5.03;2.85;;;33.40;32.20;;;;;;5073407;28;20047;-84
2021/06/19 10:50:50;;;;;;;5.75;2.47;;;32.60;33.20;;;;;;5073223;28;20082;-84
2021/06/19 10:53:17;;;;;;;10.02;3.00;;;32.10;33.80;;;;;;5073188;28;20024;-82
2021/06/19 10:55:42;;;;;;;4.78;2.30;;;31.80;34.00;;;;;;5068495;28;20025;-85
2021/06/19 10:58:18;;;;;;;3.30;2.15;;;31.50;33.60;;;;;;5063291;28;20035;-85
2021/06/19 11:00:52;;;;;;;4.25;2.35;;;31.20;34.00;;;;;;5088998;28;20036;-84
2021/06/19 11:03:42;;;;;;;3.45;2.35;;;31.00;35.10;;;;;;5082707;28;20017;-83
2021/06/19 11:06:26;;;;;;;5.82;2.47;;;30.50;35.00;;;;;;5072868;28;20028;-83
2021/06/19 11:09:17;;;;;;;8.70;2.90;;;30.20;35.90;;;;;;5073274;28;20162;-82
2021/06/19 11:12:01;;;;;;;5.85;3.20;;;30.00;36.70;;;;;;5072907;28;20044;-83
2021/06/19 11:14:40;;;;;;;7.60;2.80;;;29.90;37.80;;;;;;5074892;28;20545;-83
2021/06/19 11:17:12;;;;;;;7.45;3.33;;;29.90;38.00;;;;;;5075385;28;20029;-84
2021/06/19 11:19:48;;;;;;;7.57;2.70;;;30.10;38.10;;;;;;5073721;28;20033;-83
2021/06/19 11:22:26;;;;;;;8.63;2.80;;;30.00;38.00;;;;;;5076791;28;20043;-84
2021/06/19 11:25:28;;;;;;;4.28;2.92;;;30.00;38.00;;;;;;5077874;28;20137;-85
2021/06/19 11:28:01;;;;;;;4.15;3.00;;;29.90;38.90;;;;;;5076739;28;20023;-82
2021/06/19 11:30:36;;;;;;;4.95;2.47;;;30.00;38.20;;;;;;5070487;28;20017;-83
2021/06/19 11:33:20;;;;;;;8.75;2.78;;;29.90;37.90;;;;;;5069630;28;20386;-83
2021/06/19 11:35:58;;;;;;;5.00;2.50;;;29.60;38.40;;;;;;5063260;28;20047;-83
2021/06/19 11:38:24;;;;;;;9.52;3.05;;;29.60;38.70;;;;;;5076964;28;20413;-83
2021/06/19 11:40:50;;;;;;;7.83;3.50;;;29.50;39.30;;;;;;5067054;28;20518;-82
2021/06/19 11:43:29;;;;;;;7.53;2.47;;;29.50;39.20;;;;;;5057543;28;20361;-82
2021/06/19 11:46:00;;;;;;;5.32;2.47;;;29.50;38.90;;;;;;5045096;28;20021;-81
2021/06/19 11:48:26;;;;;;;4.68;2.90;;;29.40;39.00;;;;;;5057274;28;20021;-83
2021/06/19 11:51:01;;;;;;;5.43;3.08;;;29.20;40.00;;;;;;5038590;28;20460;-83
2021/06/19 11:53:34;;;;;;;5.65;3.28;;;29.20;39.50;;;;;;5058490;28;20033;-83
2021/06/19 11:56:10;;;;;;;3.95;2.60;;;29.20;39.00;;;;;;5046621;28;20028;-83
2021/06/19 11:58:57;;;;;;;6.68;2.80;;;29.10;39.10;;;;;;5044714;28;20526;-85
2021/06/19 12:01:25;;;;;;;12.32;4.20;;;29.10;38.60;;;;;;5047060;28;20037;-84
2021/06/19 12:03:52;;;;;;;4.07;2.67;;;29.20;39.20;;;;;;5062967;28;20041;-85
2021/06/19 12:06:38;;;;;;;5.78;3.08;;;29.20;39.90;;;;;;5057029;28;20021;-85
2021/06/19 12:09:09;;;;;;;6.05;2.50;;;29.20;39.50;;;;;;5056114;28;20514;-82
2021/06/19 12:11:38;;;;;;;6.63;3.13;;;29.10;39.90;;;;;;5055976;28;20020;-83
2021/06/19 12:14:27;;;;;;;7.47;3.58;;;29.10;40.10;;;;;;5055837;28;20021;-83
2021/06/19 12:16:55;;;;;;;4.95;2.60;;;29.10;40.10;;;;;;5042135;28;20025;-84
2021/06/19 12:19:26;;;;;;;4.70;2.38;;;28.80;39.60;;;;;;5055828;28;20382;-83
2021/06/19 12:21:57;;;;;;;10.18;3.58;;;28.80;39.30;;;;;;5055522;28;20494;-85
2021/06/19 12:24:29;;;;;;;7.63;3.05;;;28.80;40.30;;;;;;5055563;28;20071;-83
2021/06/19 12:27:00;;;;;;;6.65;2.90;;;28.90;40.00;;;;;;5055355;28;20025;-82
2021/06/19 12:29:56;;;;;;;2.47;2.28;;;29.00;39.50;;;;;;5055992;28;20036;-83
2021/06/19 12:32:26;;;;;;;4.32;2.45;;;29.00;38.30;;;;;;5053094;28;20033;-83
2021/06/19 12:34:58;;;;;;;4.03;1.80;;;28.90;38.20;;;;;;5070142;28;20032;-83
2021/06/19 12:37:27;;;;;;;3.55;2.45;;;28.90;38.00;;;;;;5059639;28;20044;-81
2021/06/19 12:39:54;;;;;;;8.65;2.38;;;28.90;39.00;;;;;;5058122;28;20119;-85
2021/06/19 12:42:46;;;;;;;7.32;2.90;;;28.90;39.40;;;;;;5057625;28;20384;-84
2021/06/19 12:45:31;;;;;;;7.03;3.35;;;28.90;39.70;;;;;;5061314;28;20087;-86
2021/06/19 12:47:56;;;;;;;6.13;3.40;;;28.90;40.20;;;;;;5076114;28;20094;-84
2021/06/19 12:50:31;;;;;;;5.57;3.30;;;29.00;40.50;;;;;;5057568;28;20154;-83
2021/06/19 12:53:12;;;;;;;8.45;2.83;;;29.00;40.00;;;;;;5075763;28;20100;-86
2021/06/19 12:55:44;;;;;;;5.88;2.53;;;29.00;40.30;;;;;;5075197;28;20436;-85
2021/06/19 12:58:23;;;;;;;5.80;2.42;;;29.00;39.50;;;;;;5075408;28;20108;-84
2021/06/19 13:00:57;;;;;;;4.72;2.13;;;28.90;38.10;;;;;;5076169;28;20079;-87
2021/06/19 13:03:47;;;;;;;5.70;3.35;;;28.80;38.60;;;;;;5075715;28;20037;-84